B.franklin Reinauer — WDG4684 — position and weather

sailwx.info

Track history (hours):
 
Tides and Currents Weather Stations Pressure Air Temp Water Temp Dewpoint Dewpoint Depression Visibility Wind Speed Wind Dir Waves Ship Positions

B.franklin Reinauer

Owner: Reinauer Transportation Co.,LLC., STATEN ISLAND, NY. More information available from US FCC via Universal Licensing System and Coast Guard Vessel Documentation Center.

Last reported at 2017-Sep-24 13:30 UTC. Time now 2017-Sep-25 00:49 UTC.
Position N 37°14' W 076°27'.

Length 132 m; draft 6.5 m.

Type: . MMSI: 367539090.

Date/timePositionNaut miles runAvg speedWind from/ knotsBaromVisibWave heightAir tempDewpointWater temp
2017-Sep-24 13:30N 37°14' W 076°27'0 0.1
2017-Sep-24 13:00N 37°14' W 076°27'0 0.1
2017-Sep-24 12:30N 37°14' W 076°27'0 0.0
2017-Sep-24 10:45N 37°14' W 076°27'0 0.0
2017-Sep-24 10:24N 37°14' W 076°27'  
2017-Sep-22 02:00N 38°57' W 075°07'510.7
2017-Sep-22 01:30N 38°53' W 075°04'510.2
2017-Sep-22 01:00N 38°48' W 075°00'510.1
2017-Sep-22 00:30N 38°49' W 074°54'5 9.6
2017-Sep-22 00:00N 38°52' W 074°49'5 9.8
2017-Sep-21 23:29N 38°56' W 074°45'5 9.8
2017-Sep-21 22:59N 38°60' W 074°41'5 9.8
2017-Sep-21 22:28N 39°03' W 074°36'36 9.7
2017-Sep-21 18:44N 39°31' W 074°06'3 9.9
2017-Sep-21 18:29N 39°33' W 074°05'5 9.9
2017-Sep-21 17:59N 39°38' W 074°03'510.0
2017-Sep-21 17:30N 39°42' W 074°01'5 9.9
2017-Sep-21 17:00N 39°47' W 073°59'5 9.9
2017-Sep-21 16:30N 39°52' W 073°58'5 9.8
2017-Sep-21 15:57N 39°57' W 073°57'5 9.8
2017-Sep-21 15:29N 40°02' W 073°56'5 9.6
2017-Sep-21 15:00N 40°06' W 073°55'5 9.9
2017-Sep-21 14:30N 40°11' W 073°54'5 9.8
2017-Sep-21 14:00N 40°16' W 073°54'5 9.4
2017-Sep-21 13:30N 40°21' W 073°53'5 9.4
2017-Sep-21 12:56N 40°26' W 073°53'4 8.1
2017-Sep-21 12:30N 40°29' W 073°55'4 8.1
2017-Sep-21 12:00N 40°31' W 073°60'4 7.5
2017-Sep-21 11:30N 40°34' W 074°02'4 8.4
2017-Sep-21 11:00N 40°39' W 074°04'3 6.2
2017-Sep-21 10:30N 40°39' W 074°08'2 5.0
2017-Sep-21 10:00N 40°39' W 074°11'2 3.1
2017-Sep-21 09:30N 40°38' W 074°12'0 0.0
2017-Sep-21 03:33N 40°38' W 074°12'0 1.2
2017-Sep-21 03:30N 40°38' W 074°12'3 5.4
2017-Sep-21 03:00N 40°39' W 074°09'1 1.7
2017-Sep-21 02:30N 40°38' W 074°08'0 0.0
2017-Sep-21 02:00N 40°38' W 074°08'0 0.0
2017-Sep-21 01:30N 40°38' W 074°08'0 0.0
2017-Sep-21 01:00N 40°38' W 074°08'0 0.0
2017-Sep-21 00:30N 40°38' W 074°08'0 0.0
2017-Sep-21 00:00N 40°38' W 074°08'0 0.0
2017-Sep-20 23:30N 40°38' W 074°08'0 0.0
2017-Sep-20 23:00N 40°38' W 074°08'0 0.0
2017-Sep-20 22:30N 40°38' W 074°08'0 0.0
2017-Sep-20 22:00N 40°38' W 074°08'0 0.0
2017-Sep-20 21:30N 40°38' W 074°08'0 0.0
2017-Sep-20 21:00N 40°38' W 074°08'0 0.0
2017-Sep-20 20:30N 40°38' W 074°08'0 0.0
2017-Sep-20 20:00N 40°38' W 074°08'0 0.0
2017-Sep-20 19:30N 40°38' W 074°08'0 0.0
2017-Sep-20 19:00N 40°38' W 074°08'0 0.0
2017-Sep-20 18:30N 40°38' W 074°08'0 0.0
2017-Sep-20 18:00N 40°38' W 074°08'0 0.0
2017-Sep-20 17:24N 40°38' W 074°08'0 0.0
2017-Sep-20 16:57N 40°38' W 074°08'0 0.0
2017-Sep-20 16:30N 40°38' W 074°08'0 0.0
2017-Sep-20 16:00N 40°38' W 074°08'0 0.0
2017-Sep-20 15:30N 40°38' W 074°08'0 0.0
2017-Sep-20 15:00N 40°38' W 074°08'0 0.0
2017-Sep-20 14:00N 40°38' W 074°08'0 0.0
2017-Sep-20 13:30N 40°38' W 074°08'0 0.0
2017-Sep-20 13:00N 40°38' W 074°08'0 0.0
2017-Sep-20 12:30N 40°38' W 074°08'0 0.0
2017-Sep-20 12:00N 40°38' W 074°08'0 0.0
2017-Sep-20 11:30N 40°38' W 074°08'0 0.0
2017-Sep-20 11:00N 40°38' W 074°08'1 2.3
2017-Sep-20 10:30N 40°39' W 074°09'3 5.1
2017-Sep-20 10:00N 40°38' W 074°12'0 0.0
2017-Sep-20 09:30N 40°38' W 074°12'1 2.2
2017-Sep-20 09:00N 40°38' W 074°12'2 4.4
2017-Sep-20 08:30N 40°39' W 074°09'1 1.0
2017-Sep-20 08:00N 40°39' W 074°09'1 2.1
2017-Sep-20 07:30N 40°38' W 074°08'0 0.0
2017-Sep-20 06:59N 40°38' W 074°08'0 0.0
2017-Sep-20 06:29N 40°38' W 074°08'0 0.0
2017-Sep-20 05:59N 40°38' W 074°08'0 0.0
2017-Sep-20 05:29N 40°38' W 074°08'0 0.0
2017-Sep-20 04:59N 40°38' W 074°08'0 0.0
2017-Sep-20 04:29N 40°38' W 074°08'0 0.0
2017-Sep-20 03:59N 40°38' W 074°08'0 0.0
2017-Sep-20 03:29N 40°38' W 074°08'0 0.0
2017-Sep-20 02:56N 40°38' W 074°08'0 0.0
2017-Sep-20 02:29N 40°38' W 074°08'0 0.0
2017-Sep-20 01:59N 40°38' W 074°08'0 0.0
2017-Sep-20 01:29N 40°38' W 074°08'0 0.0
2017-Sep-20 00:59N 40°38' W 074°08'0 0.0
2017-Sep-20 00:29N 40°38' W 074°08'0 0.0
2017-Sep-19 23:59N 40°38' W 074°08'0 0.0
2017-Sep-19 23:26N 40°38' W 074°08'0 0.0
2017-Sep-19 22:59N 40°38' W 074°08'0 0.0
2017-Sep-19 22:26N 40°38' W 074°08'0 0.0
2017-Sep-19 21:59N 40°38' W 074°08'0 0.0
2017-Sep-19 21:29N 40°38' W 074°08'0 0.0
2017-Sep-19 20:59N 40°38' W 074°08'0 0.0
2017-Sep-19 20:29N 40°38' W 074°08'0 0.0
2017-Sep-19 19:59N 40°38' W 074°08'0 0.0
2017-Sep-19 19:29N 40°38' W 074°08'0 0.0
2017-Sep-19 18:59N 40°38' W 074°08'0 0.0
2017-Sep-19 18:29N 40°38' W 074°08'0 0.0
2017-Sep-19 17:53N 40°38' W 074°08'0 0.0
2017-Sep-19 17:29N 40°38' W 074°08'0 0.0
2017-Sep-19 16:59N 40°38' W 074°08'0 0.0
2017-Sep-19 16:29N 40°38' W 074°08'0 0.0
2017-Sep-19 15:59N 40°38' W 074°08'0 0.0
2017-Sep-19 15:29N 40°38' W 074°08'2 3.9
2017-Sep-19 15:01N 40°39' W 074°05'0 0.5
2017-Sep-19 14:25N 40°39' W 074°05'0 0.0
2017-Sep-19 13:58N 40°39' W 074°05'0 0.0
2017-Sep-19 13:28N 40°39' W 074°05'0 0.0
2017-Sep-19 12:58N 40°39' W 074°05'0 0.0
2017-Sep-19 12:30N 40°39' W 074°05'3 5.3
2017-Sep-19 12:00N 40°40' W 074°02'1 1.8
2017-Sep-19 11:30N 40°40' W 074°01'0 0.0
2017-Sep-19 11:00N 40°40' W 074°01'1 1.2
2017-Sep-19 10:30N 40°40' W 074°02'5 8.7
2017-Sep-19 09:57N 40°38' W 074°08'0 0.0
2017-Sep-19 09:27N 40°38' W 074°08'0 0.0
2017-Sep-19 08:57N 40°38' W 074°08'0 0.0
2017-Sep-19 08:30N 40°38' W 074°08'0 0.0
2017-Sep-19 08:00N 40°38' W 074°08'0 0.0
2017-Sep-19 07:30N 40°38' W 074°08'0 0.0
2017-Sep-19 07:00N 40°38' W 074°08'0 0.0
2017-Sep-19 06:30N 40°38' W 074°08'0 0.0
2017-Sep-19 06:00N 40°38' W 074°08'0 0.0
2017-Sep-19 05:30N 40°38' W 074°08'0 0.0
2017-Sep-19 05:00N 40°38' W 074°08'0 0.0
2017-Sep-19 04:30N 40°38' W 074°08'0 0.0
2017-Sep-19 04:00N 40°38' W 074°08'0 0.0
2017-Sep-19 03:30N 40°38' W 074°08'0 0.0
2017-Sep-19 03:00N 40°38' W 074°08'0 0.0
2017-Sep-19 02:30N 40°38' W 074°08'0 0.0
2017-Sep-19 02:00N 40°38' W 074°08'0 0.0
2017-Sep-19 01:30N 40°38' W 074°08'0 0.0
2017-Sep-19 01:00N 40°38' W 074°08'0 0.0
2017-Sep-19 00:30N 40°38' W 074°08'0 0.0
2017-Sep-19 00:00N 40°38' W 074°08'1 2.6
2017-Sep-18 23:30N 40°39' W 074°06'3 5.4
2017-Sep-18 23:01N 40°39' W 074°03'0 0.1
2017-Sep-18 22:28N 40°39' W 074°03'0 0.0
2017-Sep-18 21:58N 40°39' W 074°02'0 0.0
2017-Sep-18 21:28N 40°39' W 074°02'0 0.0
2017-Sep-18 20:58N 40°39' W 074°02'0 0.3
2017-Sep-18 20:28N 40°39' W 074°03'0 0.1
2017-Sep-18 19:58N 40°39' W 074°03'0 0.1
2017-Sep-18 19:28N 40°39' W 074°03'0 0.1
2017-Sep-18 18:58N 40°39' W 074°03'0 0.0
2017-Sep-18 18:28N 40°39' W 074°03'0 0.0
2017-Sep-18 17:58N 40°39' W 074°03'0 0.0
2017-Sep-18 17:28N 40°39' W 074°03'0 0.0
2017-Sep-18 16:58N 40°39' W 074°03'0 0.0
2017-Sep-18 16:28N 40°39' W 074°03'0 0.0
2017-Sep-18 15:58N 40°39' W 074°03'0 0.0
2017-Sep-18 15:28N 40°39' W 074°03'0 0.0
2017-Sep-18 14:58N 40°39' W 074°03'0 0.1
2017-Sep-18 14:28N 40°39' W 074°03'0 0.0
2017-Sep-18 13:58N 40°39' W 074°03'0 0.1
2017-Sep-18 13:28N 40°39' W 074°03'0 0.2
2017-Sep-18 12:58N 40°39' W 074°03'0 0.1
2017-Sep-18 12:28N 40°39' W 074°03'0 0.0
2017-Sep-18 11:58N 40°39' W 074°03'0 0.1
2017-Sep-18 11:28N 40°39' W 074°03'0 0.0
2017-Sep-18 10:55N 40°39' W 074°03'0 0.0
2017-Sep-18 10:28N 40°39' W 074°03'0 0.1
2017-Sep-18 09:58N 40°39' W 074°03'0 0.0
2017-Sep-18 09:28N 40°39' W 074°03'0 0.0
2017-Sep-18 08:58N 40°39' W 074°03'0 0.3
2017-Sep-18 08:28N 40°39' W 074°03'0 0.0
2017-Sep-18 07:58N 40°39' W 074°03'0 0.1
2017-Sep-18 07:28N 40°39' W 074°03'0 0.1
2017-Sep-18 06:58N 40°39' W 074°03'0 0.0
2017-Sep-18 06:28N 40°39' W 074°03'0 0.0
2017-Sep-18 05:58N 40°39' W 074°03'0 0.0
2017-Sep-18 05:28N 40°39' W 074°03'0 0.0
2017-Sep-18 04:58N 40°39' W 074°03'0 0.0
2017-Sep-18 04:28N 40°39' W 074°03'0 0.0
2017-Sep-18 03:58N 40°39' W 074°03'0 0.1
2017-Sep-18 03:28N 40°39' W 074°03'0 0.1
2017-Sep-18 02:58N 40°39' W 074°03'0 0.0
2017-Sep-18 02:28N 40°39' W 074°03'0 0.0
2017-Sep-18 01:58N 40°39' W 074°03'0 0.0
2017-Sep-18 01:28N 40°39' W 074°03'0 0.2
2017-Sep-18 00:58N 40°39' W 074°03'0 0.1
2017-Sep-18 00:28N 40°39' W 074°03'0 0.1
2017-Sep-17 23:58N 40°39' W 074°03'0 0.0
2017-Sep-17 23:28N 40°39' W 074°03'0 0.0
2017-Sep-17 22:58N 40°39' W 074°03'0 0.0
2017-Sep-17 22:28N 40°39' W 074°03'0 0.0
2017-Sep-17 21:58N 40°39' W 074°03'0 0.1
2017-Sep-17 21:28N 40°39' W 074°03'0 0.0
2017-Sep-17 20:58N 40°39' W 074°03'0 0.0
2017-Sep-17 20:22N 40°39' W 074°03'0 0.1
2017-Sep-17 19:58N 40°39' W 074°03'0 0.0
2017-Sep-17 19:28N 40°39' W 074°03'0 0.2
2017-Sep-17 18:58N 40°39' W 074°03'0 0.3
2017-Sep-17 18:28N 40°39' W 074°03'0 0.0
2017-Sep-17 17:58N 40°39' W 074°03'0 0.0
2017-Sep-17 17:28N 40°39' W 074°03'0 0.1
2017-Sep-17 16:58N 40°39' W 074°03'0 0.0
2017-Sep-17 16:28N 40°39' W 074°03'0 0.0
2017-Sep-17 15:58N 40°39' W 074°03'0 0.0
2017-Sep-17 15:28N 40°39' W 074°03'0 0.0
2017-Sep-17 14:58N 40°39' W 074°03'0 0.0
2017-Sep-17 14:28N 40°39' W 074°03'0 0.0
2017-Sep-17 13:58N 40°39' W 074°03'0 0.0
2017-Sep-17 13:28N 40°39' W 074°03'0 0.2
2017-Sep-17 12:58N 40°39' W 074°03'0 0.2
2017-Sep-17 12:25N 40°39' W 074°03'0 0.0
2017-Sep-17 11:58N 40°39' W 074°03'0 0.0
2017-Sep-17 11:28N 40°39' W 074°03'0 0.0
2017-Sep-17 10:58N 40°39' W 074°03'0 0.0
2017-Sep-17 10:28N 40°39' W 074°03'0 0.0
2017-Sep-17 09:58N 40°39' W 074°03'0 0.1
2017-Sep-17 09:28N 40°39' W 074°03'0 0.0
2017-Sep-17 08:58N 40°39' W 074°03'0 0.0
2017-Sep-17 08:28N 40°39' W 074°03'0 0.0
2017-Sep-17 07:58N 40°39' W 074°03'0 0.1
2017-Sep-17 07:28N 40°39' W 074°03'0 0.1
2017-Sep-17 06:58N 40°39' W 074°03'0 0.2
2017-Sep-17 06:28N 40°39' W 074°03'0 0.1
2017-Sep-17 05:58N 40°39' W 074°03'0 0.0
2017-Sep-17 05:28N 40°39' W 074°03'0 0.0
2017-Sep-17 04:58N 40°39' W 074°03'0 0.0
2017-Sep-17 04:28N 40°39' W 074°03'0 0.0
2017-Sep-17 03:58N 40°39' W 074°03'0 0.0
2017-Sep-17 03:28N 40°39' W 074°03'0 0.0
2017-Sep-17 02:58N 40°39' W 074°03'0 0.0
2017-Sep-17 02:28N 40°39' W 074°03'0 0.0
2017-Sep-17 01:59N 40°39' W 074°03'2 4.4
2017-Sep-17 01:29N 40°39' W 074°05'0 0.0
2017-Sep-17 00:59N 40°39' W 074°05'0 0.0
2017-Sep-17 00:26N 40°39' W 074°05'0 0.0
2017-Sep-16 23:59N 40°39' W 074°05'0 0.0
2017-Sep-16 23:29N 40°39' W 074°05'0 0.0
2017-Sep-16 22:59N 40°39' W 074°05'0 0.0
2017-Sep-16 22:29N 40°39' W 074°05'1 2.3
2017-Sep-16 22:00N 40°39' W 074°04'1 2.2
2017-Sep-16 21:28N 40°39' W 074°03'0 0.0
2017-Sep-16 20:58N 40°39' W 074°03'0 0.1
2017-Sep-16 20:28N 40°39' W 074°03'0 0.0
2017-Sep-16 19:58N 40°39' W 074°02'0 0.0
2017-Sep-16 19:28N 40°39' W 074°03'0 0.0
2017-Sep-16 18:58N 40°39' W 074°03'0 0.0
2017-Sep-16 18:28N 40°39' W 074°03'0 0.1
2017-Sep-16 17:58N 40°39' W 074°02'0 0.2
2017-Sep-16 17:28N 40°39' W 074°03'0 0.1
2017-Sep-16 16:58N 40°39' W 074°03'0 0.1
2017-Sep-16 16:28N 40°39' W 074°03'0 0.0
2017-Sep-16 15:58N 40°39' W 074°03'2 4.5
2017-Sep-16 15:31N 40°39' W 074°05'2 3.2
2017-Sep-16 14:55N 40°38' W 074°08'0 0.0
2017-Sep-16 14:28N 40°38' W 074°08'0 0.0
2017-Sep-16 13:30N 40°38' W 074°08'0 0.5
2017-Sep-16 13:00N 40°39' W 074°07'4 7.4
2017-Sep-16 12:30N 40°39' W 074°03'0 0.1
2017-Sep-16 12:00N 40°39' W 074°03'0 0.3
2017-Sep-16 11:30N 40°39' W 074°02'0 0.1
2017-Sep-16 11:00N 40°39' W 074°02'0 0.0
2017-Sep-16 10:30N 40°39' W 074°03'0 0.0
2017-Sep-16 10:00N 40°39' W 074°03'0 0.0
2017-Sep-16 09:30N 40°39' W 074°03'0 0.0
2017-Sep-16 09:00N 40°39' W 074°02'0 0.0
2017-Sep-16 08:30N 40°39' W 074°02'0 0.0
2017-Sep-16 08:00N 40°39' W 074°02'0 0.0
2017-Sep-16 07:30N 40°39' W 074°02'0 0.0
2017-Sep-16 07:00N 40°39' W 074°02'0 0.3
2017-Sep-16 06:30N 40°39' W 074°03'0 0.0
2017-Sep-16 06:00N 40°39' W 074°03'0 0.1
2017-Sep-16 05:30N 40°39' W 074°03'0 0.0
2017-Sep-16 05:00N 40°39' W 074°03'0 0.0
2017-Sep-16 04:30N 40°39' W 074°03'0 0.0
2017-Sep-16 04:00N 40°39' W 074°03'0 0.0
2017-Sep-16 03:30N 40°39' W 074°03'0 0.0
2017-Sep-16 03:00N 40°39' W 074°03'0 0.0
2017-Sep-16 02:30N 40°39' W 074°03'0 0.0
2017-Sep-16 02:00N 40°39' W 074°03'0 0.1
2017-Sep-16 01:30N 40°39' W 074°03'0 0.0
2017-Sep-16 01:00N 40°39' W 074°03'0 0.0
2017-Sep-16 00:30N 40°39' W 074°03'0 0.0
2017-Sep-16 00:00N 40°39' W 074°03'0 0.2
2017-Sep-15 23:30N 40°39' W 074°03'0 0.1
2017-Sep-15 23:00N 40°39' W 074°03'0 0.0
2017-Sep-15 22:30N 40°39' W 074°03'0 0.1
2017-Sep-15 22:00N 40°39' W 074°03'0 0.0
2017-Sep-15 21:30N 40°39' W 074°03'0 0.0
2017-Sep-15 21:00N 40°39' W 074°03'0 0.0
2017-Sep-15 20:30N 40°39' W 074°03'0 0.1
2017-Sep-15 20:00N 40°39' W 074°03'0 0.0
2017-Sep-15 19:30N 40°39' W 074°03'0 0.0
2017-Sep-15 19:00N 40°39' W 074°02'0 0.0
2017-Sep-15 18:30N 40°39' W 074°02'0 0.1
2017-Sep-15 18:00N 40°39' W 074°03'0 0.2
2017-Sep-15 17:30N 40°39' W 074°03'0 0.1
2017-Sep-15 17:00N 40°39' W 074°03'0 0.1
2017-Sep-15 16:30N 40°39' W 074°03'0 0.1
2017-Sep-15 16:00N 40°39' W 074°03'0 0.0
2017-Sep-15 15:30N 40°39' W 074°03'0 0.0
2017-Sep-15 15:00N 40°39' W 074°03'0 0.0
2017-Sep-15 14:30N 40°39' W 074°03'0 0.0
2017-Sep-15 14:00N 40°39' W 074°03'0 0.0
2017-Sep-15 13:00N 40°39' W 074°03'0 0.0
2017-Sep-15 12:30N 40°39' W 074°03'0 0.0
2017-Sep-15 12:00N 40°39' W 074°03'0 0.0
2017-Sep-15 11:30N 40°39' W 074°03'0 0.1
2017-Sep-15 11:00N 40°39' W 074°03'0 0.3
2017-Sep-15 10:30N 40°39' W 074°03'0 0.1
2017-Sep-15 10:00N 40°39' W 074°03'0 0.1
2017-Sep-15 09:30N 40°39' W 074°03'0 0.0
2017-Sep-15 09:00N 40°39' W 074°03'0 0.0
2017-Sep-15 08:30N 40°39' W 074°03'0 0.0
2017-Sep-15 08:00N 40°39' W 074°03'0 0.0
2017-Sep-15 07:30N 40°39' W 074°03'0 0.0
2017-Sep-15 07:00N 40°39' W 074°03'0 0.0
2017-Sep-15 06:30N 40°39' W 074°03'0 0.0
2017-Sep-15 06:00N 40°39' W 074°03'0 0.1
2017-Sep-15 05:30N 40°39' W 074°03'0 0.2
2017-Sep-15 05:00N 40°39' W 074°03'0 0.1
2017-Sep-15 04:30N 40°39' W 074°03'0 0.0
2017-Sep-15 04:00N 40°39' W 074°03'0 0.0
2017-Sep-15 03:30N 40°39' W 074°03'0 0.0
2017-Sep-15 03:00N 40°39' W 074°03'0 0.0
2017-Sep-15 02:30N 40°39' W 074°03'0 0.0
2017-Sep-15 02:00N 40°39' W 074°03'0 0.0
2017-Sep-15 01:30N 40°39' W 074°03'0 0.0
2017-Sep-15 01:00N 40°39' W 074°03'0 0.0
2017-Sep-15 00:30N 40°39' W 074°03'0 0.0
2017-Sep-15 00:00N 40°39' W 074°03'0 0.0
2017-Sep-14 23:30N 40°39' W 074°03'0 0.0
2017-Sep-14 23:00N 40°39' W 074°03'0 0.2
2017-Sep-14 22:30N 40°39' W 074°03'0 0.1
2017-Sep-14 22:00N 40°39' W 074°03'0 0.1
2017-Sep-14 21:30N 40°39' W 074°03'0 0.1
2017-Sep-14 21:00N 40°39' W 074°03'0 0.0
2017-Sep-14 20:30N 40°39' W 074°03'0 0.0
2017-Sep-14 20:00N 40°39' W 074°03'0 0.0
2017-Sep-14 19:30N 40°39' W 074°03'0 0.0
2017-Sep-14 19:00N 40°39' W 074°03'0 0.0
2017-Sep-14 18:30N 40°39' W 074°03'0 0.1
2017-Sep-14 18:00N 40°39' W 074°03'0 0.0
2017-Sep-14 17:30N 40°39' W 074°03'0 0.1
2017-Sep-14 17:00N 40°39' W 074°03'1 3.0
2017-Sep-14 16:31N 40°40' W 074°01'1 1.0
2017-Sep-14 15:59N 40°40' W 074°01'0 0.0
2017-Sep-14 15:29N 40°40' W 074°01'0 0.0
2017-Sep-14 15:00N 40°40' W 074°01'0 0.0
2017-Sep-14 14:30N 40°40' W 074°01'0 0.0
2017-Sep-14 14:00N 40°40' W 074°01'2 3.0
2017-Sep-14 13:31N 40°39' W 074°03'  
Track history (hours):
 
Tides and Currents Weather Stations Pressure Air Temp Water Temp Dewpoint Dewpoint Depression Visibility Wind Speed Wind Dir Waves Ship Positions

B.franklin Reinauer

Owner: Reinauer Transportation Co.,LLC., STATEN ISLAND, NY. More information available from US FCC via Universal Licensing System and Coast Guard Vessel Documentation Center.

Last reported at 2017-Sep-24 13:30 UTC. Time now 2017-Sep-25 00:49 UTC.
Position N 37°14' W 076°27'.

Length 132 m; draft 6.5 m.

Type: . MMSI: 367539090.

Date/timePositionNaut miles runAvg speedWind from/ knotsBaromVisibWave heightAir tempDewpointWater temp
2017-Sep-24 13:30N 37°14' W 076°27'0 0.1
2017-Sep-24 13:00N 37°14' W 076°27'0 0.1
2017-Sep-24 12:30N 37°14' W 076°27'0 0.0
2017-Sep-24 10:45N 37°14' W 076°27'0 0.0
2017-Sep-24 10:24N 37°14' W 076°27'  
2017-Sep-22 02:00N 38°57' W 075°07'510.7
2017-Sep-22 01:30N 38°53' W 075°04'510.2
2017-Sep-22 01:00N 38°48' W 075°00'510.1
2017-Sep-22 00:30N 38°49' W 074°54'5 9.6
2017-Sep-22 00:00N 38°52' W 074°49'5 9.8
2017-Sep-21 23:29N 38°56' W 074°45'5 9.8
2017-Sep-21 22:59N 38°60' W 074°41'5 9.8
2017-Sep-21 22:28N 39°03' W 074°36'36 9.7
2017-Sep-21 18:44N 39°31' W 074°06'3 9.9
2017-Sep-21 18:29N 39°33' W 074°05'5 9.9
2017-Sep-21 17:59N 39°38' W 074°03'510.0
2017-Sep-21 17:30N 39°42' W 074°01'5 9.9
2017-Sep-21 17:00N 39°47' W 073°59'5 9.9
2017-Sep-21 16:30N 39°52' W 073°58'5 9.8
2017-Sep-21 15:57N 39°57' W 073°57'5 9.8
2017-Sep-21 15:29N 40°02' W 073°56'5 9.6
2017-Sep-21 15:00N 40°06' W 073°55'5 9.9
2017-Sep-21 14:30N 40°11' W 073°54'5 9.8
2017-Sep-21 14:00N 40°16' W 073°54'5 9.4
2017-Sep-21 13:30N 40°21' W 073°53'5 9.4
2017-Sep-21 12:56N 40°26' W 073°53'4 8.1
2017-Sep-21 12:30N 40°29' W 073°55'4 8.1
2017-Sep-21 12:00N 40°31' W 073°60'4 7.5
2017-Sep-21 11:30N 40°34' W 074°02'4 8.4
2017-Sep-21 11:00N 40°39' W 074°04'3 6.2
2017-Sep-21 10:30N 40°39' W 074°08'2 5.0
2017-Sep-21 10:00N 40°39' W 074°11'2 3.1
2017-Sep-21 09:30N 40°38' W 074°12'0 0.0
2017-Sep-21 03:33N 40°38' W 074°12'0 1.2
2017-Sep-21 03:30N 40°38' W 074°12'3 5.4
2017-Sep-21 03:00N 40°39' W 074°09'1 1.7
2017-Sep-21 02:30N 40°38' W 074°08'0 0.0
2017-Sep-21 02:00N 40°38' W 074°08'0 0.0
2017-Sep-21 01:30N 40°38' W 074°08'0 0.0
2017-Sep-21 01:00N 40°38' W 074°08'0 0.0
2017-Sep-21 00:30N 40°38' W 074°08'0 0.0
2017-Sep-21 00:00N 40°38' W 074°08'0 0.0
2017-Sep-20 23:30N 40°38' W 074°08'0 0.0
2017-Sep-20 23:00N 40°38' W 074°08'0 0.0
2017-Sep-20 22:30N 40°38' W 074°08'0 0.0
2017-Sep-20 22:00N 40°38' W 074°08'0 0.0
2017-Sep-20 21:30N 40°38' W 074°08'0 0.0
2017-Sep-20 21:00N 40°38' W 074°08'0 0.0
2017-Sep-20 20:30N 40°38' W 074°08'0 0.0
2017-Sep-20 20:00N 40°38' W 074°08'0 0.0
2017-Sep-20 19:30N 40°38' W 074°08'0 0.0
2017-Sep-20 19:00N 40°38' W 074°08'0 0.0
2017-Sep-20 18:30N 40°38' W 074°08'0 0.0
2017-Sep-20 18:00N 40°38' W 074°08'0 0.0
2017-Sep-20 17:24N 40°38' W 074°08'0 0.0
2017-Sep-20 16:57N 40°38' W 074°08'0 0.0
2017-Sep-20 16:30N 40°38' W 074°08'0 0.0
2017-Sep-20 16:00N 40°38' W 074°08'0 0.0
2017-Sep-20 15:30N 40°38' W 074°08'0 0.0
2017-Sep-20 15:00N 40°38' W 074°08'0 0.0
2017-Sep-20 14:00N 40°38' W 074°08'0 0.0
2017-Sep-20 13:30N 40°38' W 074°08'0 0.0
2017-Sep-20 13:00N 40°38' W 074°08'0 0.0
2017-Sep-20 12:30N 40°38' W 074°08'0 0.0
2017-Sep-20 12:00N 40°38' W 074°08'0 0.0
2017-Sep-20 11:30N 40°38' W 074°08'0 0.0
2017-Sep-20 11:00N 40°38' W 074°08'1 2.3
2017-Sep-20 10:30N 40°39' W 074°09'3 5.1
2017-Sep-20 10:00N 40°38' W 074°12'0 0.0
2017-Sep-20 09:30N 40°38' W 074°12'1 2.2
2017-Sep-20 09:00N 40°38' W 074°12'2 4.4
2017-Sep-20 08:30N 40°39' W 074°09'1 1.0
2017-Sep-20 08:00N 40°39' W 074°09'1 2.1
2017-Sep-20 07:30N 40°38' W 074°08'0 0.0
2017-Sep-20 06:59N 40°38' W 074°08'0 0.0
2017-Sep-20 06:29N 40°38' W 074°08'0 0.0
2017-Sep-20 05:59N 40°38' W 074°08'0 0.0
2017-Sep-20 05:29N 40°38' W 074°08'0 0.0
2017-Sep-20 04:59N 40°38' W 074°08'0 0.0
2017-Sep-20 04:29N 40°38' W 074°08'0 0.0
2017-Sep-20 03:59N 40°38' W 074°08'0 0.0
2017-Sep-20 03:29N 40°38' W 074°08'0 0.0
2017-Sep-20 02:56N 40°38' W 074°08'0 0.0
2017-Sep-20 02:29N 40°38' W 074°08'0 0.0
2017-Sep-20 01:59N 40°38' W 074°08'0 0.0
2017-Sep-20 01:29N 40°38' W 074°08'0 0.0
2017-Sep-20 00:59N 40°38' W 074°08'0 0.0
2017-Sep-20 00:29N 40°38' W 074°08'0 0.0
2017-Sep-19 23:59N 40°38' W 074°08'0 0.0
2017-Sep-19 23:26N 40°38' W 074°08'0 0.0
2017-Sep-19 22:59N 40°38' W 074°08'0 0.0
2017-Sep-19 22:26N 40°38' W 074°08'0 0.0
2017-Sep-19 21:59N 40°38' W 074°08'0 0.0
2017-Sep-19 21:29N 40°38' W 074°08'0 0.0
2017-Sep-19 20:59N 40°38' W 074°08'0 0.0
2017-Sep-19 20:29N 40°38' W 074°08'0 0.0
2017-Sep-19 19:59N 40°38' W 074°08'0 0.0
2017-Sep-19 19:29N 40°38' W 074°08'0 0.0
2017-Sep-19 18:59N 40°38' W 074°08'0 0.0
2017-Sep-19 18:29N 40°38' W 074°08'0 0.0
2017-Sep-19 17:53N 40°38' W 074°08'0 0.0
2017-Sep-19 17:29N 40°38' W 074°08'0 0.0
2017-Sep-19 16:59N 40°38' W 074°08'0 0.0
2017-Sep-19 16:29N 40°38' W 074°08'0 0.0
2017-Sep-19 15:59N 40°38' W 074°08'0 0.0
2017-Sep-19 15:29N 40°38' W 074°08'2 3.9
2017-Sep-19 15:01N 40°39' W 074°05'0 0.5
2017-Sep-19 14:25N 40°39' W 074°05'0 0.0
2017-Sep-19 13:58N 40°39' W 074°05'0 0.0
2017-Sep-19 13:28N 40°39' W 074°05'0 0.0
2017-Sep-19 12:58N 40°39' W 074°05'0 0.0
2017-Sep-19 12:30N 40°39' W 074°05'3 5.3
2017-Sep-19 12:00N 40°40' W 074°02'1 1.8
2017-Sep-19 11:30N 40°40' W 074°01'0 0.0
2017-Sep-19 11:00N 40°40' W 074°01'1 1.2
2017-Sep-19 10:30N 40°40' W 074°02'5 8.7
2017-Sep-19 09:57N 40°38' W 074°08'0 0.0
2017-Sep-19 09:27N 40°38' W 074°08'0 0.0
2017-Sep-19 08:57N 40°38' W 074°08'0 0.0
2017-Sep-19 08:30N 40°38' W 074°08'0 0.0
2017-Sep-19 08:00N 40°38' W 074°08'0 0.0
2017-Sep-19 07:30N 40°38' W 074°08'0 0.0
2017-Sep-19 07:00N 40°38' W 074°08'0 0.0
2017-Sep-19 06:30N 40°38' W 074°08'0 0.0
2017-Sep-19 06:00N 40°38' W 074°08'0 0.0
2017-Sep-19 05:30N 40°38' W 074°08'0 0.0
2017-Sep-19 05:00N 40°38' W 074°08'0 0.0
2017-Sep-19 04:30N 40°38' W 074°08'0 0.0
2017-Sep-19 04:00N 40°38' W 074°08'0 0.0
2017-Sep-19 03:30N 40°38' W 074°08'0 0.0
2017-Sep-19 03:00N 40°38' W 074°08'0 0.0
2017-Sep-19 02:30N 40°38' W 074°08'0 0.0
2017-Sep-19 02:00N 40°38' W 074°08'0 0.0
2017-Sep-19 01:30N 40°38' W 074°08'0 0.0
2017-Sep-19 01:00N 40°38' W 074°08'0 0.0
2017-Sep-19 00:30N 40°38' W 074°08'0 0.0
2017-Sep-19 00:00N 40°38' W 074°08'1 2.6
2017-Sep-18 23:30N 40°39' W 074°06'3 5.4
2017-Sep-18 23:01N 40°39' W 074°03'0 0.1
2017-Sep-18 22:28N 40°39' W 074°03'0 0.0
2017-Sep-18 21:58N 40°39' W 074°02'0 0.0
2017-Sep-18 21:28N 40°39' W 074°02'0 0.0
2017-Sep-18 20:58N 40°39' W 074°02'0 0.3
2017-Sep-18 20:28N 40°39' W 074°03'0 0.1
2017-Sep-18 19:58N 40°39' W 074°03'0 0.1
2017-Sep-18 19:28N 40°39' W 074°03'0 0.1
2017-Sep-18 18:58N 40°39' W 074°03'0 0.0
2017-Sep-18 18:28N 40°39' W 074°03'0 0.0
2017-Sep-18 17:58N 40°39' W 074°03'0 0.0
2017-Sep-18 17:28N 40°39' W 074°03'0 0.0
2017-Sep-18 16:58N 40°39' W 074°03'0 0.0
2017-Sep-18 16:28N 40°39' W 074°03'0 0.0
2017-Sep-18 15:58N 40°39' W 074°03'0 0.0
2017-Sep-18 15:28N 40°39' W 074°03'0 0.0
2017-Sep-18 14:58N 40°39' W 074°03'0 0.1
2017-Sep-18 14:28N 40°39' W 074°03'0 0.0
2017-Sep-18 13:58N 40°39' W 074°03'0 0.1
2017-Sep-18 13:28N 40°39' W 074°03'0 0.2
2017-Sep-18 12:58N 40°39' W 074°03'0 0.1
2017-Sep-18 12:28N 40°39' W 074°03'0 0.0
2017-Sep-18 11:58N 40°39' W 074°03'0 0.1
2017-Sep-18 11:28N 40°39' W 074°03'0 0.0
2017-Sep-18 10:55N 40°39' W 074°03'0 0.0
2017-Sep-18 10:28N 40°39' W 074°03'0 0.1
2017-Sep-18 09:58N 40°39' W 074°03'0 0.0
2017-Sep-18 09:28N 40°39' W 074°03'0 0.0
2017-Sep-18 08:58N 40°39' W 074°03'0 0.3
2017-Sep-18 08:28N 40°39' W 074°03'0 0.0
2017-Sep-18 07:58N 40°39' W 074°03'0 0.1
2017-Sep-18 07:28N 40°39' W 074°03'0 0.1
2017-Sep-18 06:58N 40°39' W 074°03'0 0.0
2017-Sep-18 06:28N 40°39' W 074°03'0 0.0
2017-Sep-18 05:58N 40°39' W 074°03'0 0.0
2017-Sep-18 05:28N 40°39' W 074°03'0 0.0
2017-Sep-18 04:58N 40°39' W 074°03'0 0.0
2017-Sep-18 04:28N 40°39' W 074°03'0 0.0
2017-Sep-18 03:58N 40°39' W 074°03'0 0.1
2017-Sep-18 03:28N 40°39' W 074°03'0 0.1
2017-Sep-18 02:58N 40°39' W 074°03'0 0.0
2017-Sep-18 02:28N 40°39' W 074°03'0 0.0
2017-Sep-18 01:58N 40°39' W 074°03'0 0.0
2017-Sep-18 01:28N 40°39' W 074°03'0 0.2
2017-Sep-18 00:58N 40°39' W 074°03'0 0.1
2017-Sep-18 00:28N 40°39' W 074°03'0 0.1
2017-Sep-17 23:58N 40°39' W 074°03'0 0.0
2017-Sep-17 23:28N 40°39' W 074°03'0 0.0
2017-Sep-17 22:58N 40°39' W 074°03'0 0.0
2017-Sep-17 22:28N 40°39' W 074°03'0 0.0
2017-Sep-17 21:58N 40°39' W 074°03'0 0.1
2017-Sep-17 21:28N 40°39' W 074°03'0 0.0
2017-Sep-17 20:58N 40°39' W 074°03'0 0.0
2017-Sep-17 20:22N 40°39' W 074°03'0 0.1
2017-Sep-17 19:58N 40°39' W 074°03'0 0.0
2017-Sep-17 19:28N 40°39' W 074°03'0 0.2
2017-Sep-17 18:58N 40°39' W 074°03'0 0.3
2017-Sep-17 18:28N 40°39' W 074°03'0 0.0
2017-Sep-17 17:58N 40°39' W 074°03'0 0.0
2017-Sep-17 17:28N 40°39' W 074°03'0 0.1
2017-Sep-17 16:58N 40°39' W 074°03'0 0.0
2017-Sep-17 16:28N 40°39' W 074°03'0 0.0
2017-Sep-17 15:58N 40°39' W 074°03'0 0.0
2017-Sep-17 15:28N 40°39' W 074°03'0 0.0
2017-Sep-17 14:58N 40°39' W 074°03'0 0.0
2017-Sep-17 14:28N 40°39' W 074°03'0 0.0
2017-Sep-17 13:58N 40°39' W 074°03'0 0.0
2017-Sep-17 13:28N 40°39' W 074°03'0 0.2
2017-Sep-17 12:58N 40°39' W 074°03'0 0.2
2017-Sep-17 12:25N 40°39' W 074°03'0 0.0
2017-Sep-17 11:58N 40°39' W 074°03'0 0.0
2017-Sep-17 11:28N 40°39' W 074°03'0 0.0
2017-Sep-17 10:58N 40°39' W 074°03'0 0.0
2017-Sep-17 10:28N 40°39' W 074°03'0 0.0
2017-Sep-17 09:58N 40°39' W 074°03'0 0.1
2017-Sep-17 09:28N 40°39' W 074°03'0 0.0
2017-Sep-17 08:58N 40°39' W 074°03'0 0.0
2017-Sep-17 08:28N 40°39' W 074°03'0 0.0
2017-Sep-17 07:58N 40°39' W 074°03'0 0.1
2017-Sep-17 07:28N 40°39' W 074°03'0 0.1
2017-Sep-17 06:58N 40°39' W 074°03'0 0.2
2017-Sep-17 06:28N 40°39' W 074°03'0 0.1
2017-Sep-17 05:58N 40°39' W 074°03'0 0.0
2017-Sep-17 05:28N 40°39' W 074°03'0 0.0
2017-Sep-17 04:58N 40°39' W 074°03'0 0.0
2017-Sep-17 04:28N 40°39' W 074°03'0 0.0
2017-Sep-17 03:58N 40°39' W 074°03'0 0.0
2017-Sep-17 03:28N 40°39' W 074°03'0 0.0
2017-Sep-17 02:58N 40°39' W 074°03'0 0.0
2017-Sep-17 02:28N 40°39' W 074°03'0 0.0
2017-Sep-17 01:59N 40°39' W 074°03'2 4.4
2017-Sep-17 01:29N 40°39' W 074°05'0 0.0
2017-Sep-17 00:59N 40°39' W 074°05'0 0.0
2017-Sep-17 00:26N 40°39' W 074°05'0 0.0
2017-Sep-16 23:59N 40°39' W 074°05'0 0.0
2017-Sep-16 23:29N 40°39' W 074°05'0 0.0
2017-Sep-16 22:59N 40°39' W 074°05'0 0.0
2017-Sep-16 22:29N 40°39' W 074°05'1 2.3
2017-Sep-16 22:00N 40°39' W 074°04'1 2.2
2017-Sep-16 21:28N 40°39' W 074°03'0 0.0
2017-Sep-16 20:58N 40°39' W 074°03'0 0.1
2017-Sep-16 20:28N 40°39' W 074°03'0 0.0
2017-Sep-16 19:58N 40°39' W 074°02'0 0.0
2017-Sep-16 19:28N 40°39' W 074°03'0 0.0
2017-Sep-16 18:58N 40°39' W 074°03'0 0.0
2017-Sep-16 18:28N 40°39' W 074°03'0 0.1
2017-Sep-16 17:58N 40°39' W 074°02'0 0.2
2017-Sep-16 17:28N 40°39' W 074°03'0 0.1
2017-Sep-16 16:58N 40°39' W 074°03'0 0.1
2017-Sep-16 16:28N 40°39' W 074°03'0 0.0
2017-Sep-16 15:58N 40°39' W 074°03'2 4.5
2017-Sep-16 15:31N 40°39' W 074°05'2 3.2
2017-Sep-16 14:55N 40°38' W 074°08'0 0.0
2017-Sep-16 14:28N 40°38' W 074°08'0 0.0
2017-Sep-16 13:30N 40°38' W 074°08'0 0.5
2017-Sep-16 13:00N 40°39' W 074°07'4 7.4
2017-Sep-16 12:30N 40°39' W 074°03'0 0.1
2017-Sep-16 12:00N 40°39' W 074°03'0 0.3
2017-Sep-16 11:30N 40°39' W 074°02'0 0.1
2017-Sep-16 11:00N 40°39' W 074°02'0 0.0
2017-Sep-16 10:30N 40°39' W 074°03'0 0.0
2017-Sep-16 10:00N 40°39' W 074°03'0 0.0
2017-Sep-16 09:30N 40°39' W 074°03'0 0.0
2017-Sep-16 09:00N 40°39' W 074°02'0 0.0
2017-Sep-16 08:30N 40°39' W 074°02'0 0.0
2017-Sep-16 08:00N 40°39' W 074°02'0 0.0
2017-Sep-16 07:30N 40°39' W 074°02'0 0.0
2017-Sep-16 07:00N 40°39' W 074°02'0 0.3
2017-Sep-16 06:30N 40°39' W 074°03'0 0.0
2017-Sep-16 06:00N 40°39' W 074°03'0 0.1
2017-Sep-16 05:30N 40°39' W 074°03'0 0.0
2017-Sep-16 05:00N 40°39' W 074°03'0 0.0
2017-Sep-16 04:30N 40°39' W 074°03'0 0.0
2017-Sep-16 04:00N 40°39' W 074°03'0 0.0
2017-Sep-16 03:30N 40°39' W 074°03'0 0.0
2017-Sep-16 03:00N 40°39' W 074°03'0 0.0
2017-Sep-16 02:30N 40°39' W 074°03'0 0.0
2017-Sep-16 02:00N 40°39' W 074°03'0 0.1
2017-Sep-16 01:30N 40°39' W 074°03'0 0.0
2017-Sep-16 01:00N 40°39' W 074°03'0 0.0
2017-Sep-16 00:30N 40°39' W 074°03'0 0.0
2017-Sep-16 00:00N 40°39' W 074°03'0 0.2
2017-Sep-15 23:30N 40°39' W 074°03'0 0.1
2017-Sep-15 23:00N 40°39' W 074°03'0 0.0
2017-Sep-15 22:30N 40°39' W 074°03'0 0.1
2017-Sep-15 22:00N 40°39' W 074°03'0 0.0
2017-Sep-15 21:30N 40°39' W 074°03'0 0.0
2017-Sep-15 21:00N 40°39' W 074°03'0 0.0
2017-Sep-15 20:30N 40°39' W 074°03'0 0.1
2017-Sep-15 20:00N 40°39' W 074°03'0 0.0
2017-Sep-15 19:30N 40°39' W 074°03'0 0.0
2017-Sep-15 19:00N 40°39' W 074°02'0 0.0
2017-Sep-15 18:30N 40°39' W 074°02'0 0.1
2017-Sep-15 18:00N 40°39' W 074°03'0 0.2
2017-Sep-15 17:30N 40°39' W 074°03'0 0.1
2017-Sep-15 17:00N 40°39' W 074°03'0 0.1
2017-Sep-15 16:30N 40°39' W 074°03'0 0.1
2017-Sep-15 16:00N 40°39' W 074°03'0 0.0
2017-Sep-15 15:30N 40°39' W 074°03'0 0.0
2017-Sep-15 15:00N 40°39' W 074°03'0 0.0
2017-Sep-15 14:30N 40°39' W 074°03'0 0.0
2017-Sep-15 14:00N 40°39' W 074°03'0 0.0
2017-Sep-15 13:00N 40°39' W 074°03'0 0.0
2017-Sep-15 12:30N 40°39' W 074°03'0 0.0
2017-Sep-15 12:00N 40°39' W 074°03'0 0.0
2017-Sep-15 11:30N 40°39' W 074°03'0 0.1
2017-Sep-15 11:00N 40°39' W 074°03'0 0.3
2017-Sep-15 10:30N 40°39' W 074°03'0 0.1
2017-Sep-15 10:00N 40°39' W 074°03'0 0.1
2017-Sep-15 09:30N 40°39' W 074°03'0 0.0
2017-Sep-15 09:00N 40°39' W 074°03'0 0.0
2017-Sep-15 08:30N 40°39' W 074°03'0 0.0
2017-Sep-15 08:00N 40°39' W 074°03'0 0.0
2017-Sep-15 07:30N 40°39' W 074°03'0 0.0
2017-Sep-15 07:00N 40°39' W 074°03'0 0.0
2017-Sep-15 06:30N 40°39' W 074°03'0 0.0
2017-Sep-15 06:00N 40°39' W 074°03'0 0.1
2017-Sep-15 05:30N 40°39' W 074°03'0 0.2
2017-Sep-15 05:00N 40°39' W 074°03'0 0.1
2017-Sep-15 04:30N 40°39' W 074°03'0 0.0
2017-Sep-15 04:00N 40°39' W 074°03'0 0.0
2017-Sep-15 03:30N 40°39' W 074°03'0 0.0
2017-Sep-15 03:00N 40°39' W 074°03'0 0.0
2017-Sep-15 02:30N 40°39' W 074°03'0 0.0
2017-Sep-15 02:00N 40°39' W 074°03'0 0.0
2017-Sep-15 01:30N 40°39' W 074°03'0 0.0
2017-Sep-15 01:00N 40°39' W 074°03'0 0.0
2017-Sep-15 00:30N 40°39' W 074°03'0 0.0
2017-Sep-15 00:00N 40°39' W 074°03'0 0.0
2017-Sep-14 23:30N 40°39' W 074°03'0 0.0
2017-Sep-14 23:00N 40°39' W 074°03'0 0.2
2017-Sep-14 22:30N 40°39' W 074°03'0 0.1
2017-Sep-14 22:00N 40°39' W 074°03'0 0.1
2017-Sep-14 21:30N 40°39' W 074°03'0 0.1
2017-Sep-14 21:00N 40°39' W 074°03'0 0.0
2017-Sep-14 20:30N 40°39' W 074°03'0 0.0
2017-Sep-14 20:00N 40°39' W 074°03'0 0.0
2017-Sep-14 19:30N 40°39' W 074°03'0 0.0
2017-Sep-14 19:00N 40°39' W 074°03'0 0.0
2017-Sep-14 18:30N 40°39' W 074°03'0 0.1
2017-Sep-14 18:00N 40°39' W 074°03'0 0.0
2017-Sep-14 17:30N 40°39' W 074°03'0 0.1
2017-Sep-14 17:00N 40°39' W 074°03'1 3.0
2017-Sep-14 16:31N 40°40' W 074°01'1 1.0
2017-Sep-14 15:59N 40°40' W 074°01'0 0.0
2017-Sep-14 15:29N 40°40' W 074°01'0 0.0
2017-Sep-14 15:00N 40°40' W 074°01'0 0.0
2017-Sep-14 14:30N 40°40' W 074°01'0 0.0
2017-Sep-14 14:00N 40°40' W 074°01'2 3.0
2017-Sep-14 13:31N 40°39' W 074°03'  

Dump ship's entire track history